Map

Track Data

SID SEASON NUMBER BASIN SUBBASIN NAME ISO_TIME NATURE LAT LON WMO_WIND WMO_PRES WMO_AGENCY TRACK_TYPE DIST2LAND LANDFALL IFLAG USA_AGENCY USA_ATCF_ID USA_LAT USA_LON USA_RECORD USA_STATUS USA_WIND USA_PRES USA_SSHS USA_R34_NE USA_R34_SE USA_R34_SW USA_R34_NW USA_R50_NE USA_R50_SE USA_R50_SW USA_R50_NW USA_R64_NE USA_R64_SE USA_R64_SW USA_R64_NW USA_POCI USA_ROCI USA_RMW USA_EYE TOKYO_LAT TOKYO_LON TOKYO_GRADE TOKYO_WIND TOKYO_PRES TOKYO_R50_DIR TOKYO_R50_LONG TOKYO_R50_SHORT TOKYO_R30_DIR TOKYO_R30_LONG TOKYO_R30_SHORT TOKYO_LAND CMA_LAT CMA_LON CMA_CAT CMA_WIND CMA_PRES HKO_LAT HKO_LON HKO_CAT HKO_WIND HKO_PRES NEWDELHI_LAT NEWDELHI_LON NEWDELHI_GRADE NEWDELHI_WIND NEWDELHI_PRES NEWDELHI_CI NEWDELHI_DP NEWDELHI_POCI REUNION_LAT REUNION_LON REUNION_TYPE REUNION_WIND REUNION_PRES REUNION_TNUM REUNION_CI REUNION_RMW REUNION_R34_NE REUNION_R34_SE REUNION_R34_SW REUNION_R34_NW REUNION_R50_NE REUNION_R50_SE REUNION_R50_SW REUNION_R50_NW REUNION_R64_NE REUNION_R64_SE REUNION_R64_SW REUNION_R64_NW BOM_LAT BOM_LON BOM_TYPE BOM_WIND BOM_PRES BOM_TNUM BOM_CI BOM_RMW BOM_R34_NE BOM_R34_SE BOM_R34_SW BOM_R34_NW BOM_R50_NE BOM_R50_SE BOM_R50_SW BOM_R50_NW BOM_R64_NE BOM_R64_SE BOM_R64_SW BOM_R64_NW BOM_ROCI BOM_POCI BOM_EYE BOM_POS_METHOD BOM_PRES_METHOD NADI_LAT NADI_LON NADI_CAT NADI_WIND NADI_PRES WELLINGTON_LAT WELLINGTON_LON WELLINGTON_WIND WELLINGTON_PRES DS824_LAT DS824_LON DS824_STAGE DS824_WIND DS824_PRES TD9636_LAT TD9636_LON TD9636_STAGE TD9636_WIND TD9636_PRES TD9635_LAT TD9635_LON TD9635_WIND TD9635_PRES TD9635_ROCI NEUMANN_LAT NEUMANN_LON NEUMANN_CLASS NEUMANN_WIND NEUMANN_PRES MLC_LAT MLC_LON MLC_CLASS MLC_WIND MLC_PRES USA_GUST BOM_GUST BOM_GUST_PER REUNION_GUST REUNION_GUST_PER USA_SEAHGT USA_SEARAD_NE USA_SEARAD_SE USA_SEARAD_SW USA_SEARAD_NW STORM_SPEED STORM_DIR
1908266N10132 1908 40 WP MM NOT_NAMED 1908-09-21 16:00:00 NR 9.80000 131.800 main 614 543 __________O___ -1 9.80000 131.800 7 22 284
1908266N10132 1908 40 WP MM NOT_NAMED 1908-09-21 18:00:00 NR 9.98213 131.066 main 543 431 __________P___ -1 9.98213 131.066 7 22 284
1908266N10132 1908 40 WP MM NOT_NAMED 1908-09-21 21:00:00 NR 10.2416 130.001 main 431 339 __________P___ -1 10.2416 130.001 7 21 284
1908266N10132 1908 40 WP MM NOT_NAMED 1908-09-22 00:00:00 NR 10.4702 129.034 main 339 264 __________P___ -1 10.4702 129.034 7 18 283
1908266N10132 1908 40 WP MM NOT_NAMED 1908-09-22 03:00:00 NR 10.6523 128.224 main 264 242 __________P___ -1 10.6523 128.224 7 16 283
1908266N10132 1908 40 WP MM NOT_NAMED 1908-09-22 04:00:00 NR 10.7000 128.000 main 242 197 __________O___ -1 10.7000 128.000 7 12 282
1908266N10132 1908 40 WP MM NOT_NAMED 1908-09-22 06:00:00 NR 10.7750 127.626 main 197 153 __________P___ -1 10.7750 127.626 7 9 281
1908266N10132 1908 40 WP MM NOT_NAMED 1908-09-22 09:00:00 NR 10.8506 127.211 main 153 120 __________P___ -1 10.8506 127.211 7 7 280
1908266N10132 1908 40 WP MM NOT_NAMED 1908-09-22 12:00:00 NR 10.9071 126.898 main 120 87 __________P___ -1 10.9071 126.898 7 6 282
1908266N10132 1908 40 WP MM NOT_NAMED 1908-09-22 15:00:00 NR 10.9718 126.607 main 87 76 __________P___ -1 10.9718 126.607 7 6 283
1908266N10132 1908 40 WP MM NOT_NAMED 1908-09-22 16:00:00 NR 11.0000 126.500 main 76 45 __________O___ -1 11.0000 126.500 3 8 286
1908266N10132 1908 40 WP MM NOT_NAMED 1908-09-22 18:00:00 NR 11.0774 126.233 main 45 15 __________P___ -1 11.0774 126.233 3 8 287
1908266N10132 1908 40 WP MM NOT_NAMED 1908-09-22 21:00:00 NR 11.2124 125.813 main 15 0 __________P___ -1 11.2124 125.813 3 9 289
1908266N10132 1908 40 WP MM NOT_NAMED 1908-09-23 00:00:00 NR 11.3674 125.363 main 0 0 __________P___ -1 11.3674 125.363 3 10 290
1908266N10132 1908 40 WP MM NOT_NAMED 1908-09-23 03:00:00 NR 11.5394 124.874 main 0 0 __________P___ -1 11.5394 124.874 3 10 290
1908266N10132 1908 40 WP MM NOT_NAMED 1908-09-23 04:00:00 NR 11.6000 124.700 main 15 15 __________O___ -1 11.6000 124.700 4 11 289
1908266N10132 1908 40 WP MM NOT_NAMED 1908-09-23 06:00:00 NR 11.7246 124.334 main 21 0 __________P___ -1 11.7246 124.334 4 12 289
1908266N10132 1908 40 WP MM NOT_NAMED 1908-09-23 09:00:00 NR 11.9240 123.748 main 0 0 __________P___ -1 11.9240 123.748 4 12 289
1908266N10132 1908 40 WP MM NOT_NAMED 1908-09-23 12:00:00 NR 12.1303 123.133 main 15 10 __________P___ -1 12.1303 123.133 4 13 289
1908266N10132 1908 40 WP MM NOT_NAMED 1908-09-23 15:00:00 NR 12.3342 122.507 main 64 64 __________P___ -1 12.3342 122.507 4 13 288
1908266N10132 1908 40 WP MM NOT_NAMED 1908-09-23 16:00:00 NR 12.4000 122.300 main 68 34 __________O___ -1 12.4000 122.300 4 13 288
1908266N10132 1908 40 WP MM NOT_NAMED 1908-09-23 18:00:00 NR 12.5248 121.892 main 34 0 __________P___ -1 12.5248 121.892 4 13 287
1908266N10132 1908 40 WP MM NOT_NAMED 1908-09-23 21:00:00 NR 12.7060 121.280 main 0 0 __________P___ -1 12.7060 121.280 4 12 287
1908266N10132 1908 40 WP MM NOT_NAMED 1908-09-24 00:00:00 NR 12.8798 120.676 main 10 21 __________P___ -1 12.8798 120.676 4 12 286
1908266N10132 1908 40 WP MM NOT_NAMED 1908-09-24 03:00:00 NR 13.0462 120.090 main 48 39 __________P___ -1 13.0462 120.090 4 12 286
1908266N10132 1908 40 WP MM NOT_NAMED 1908-09-24 04:00:00 NR 13.1000 119.900 main 54 54 __________O___ -1 13.1000 119.900 4 11 286
1908266N10132 1908 40 WP MM NOT_NAMED 1908-09-24 06:00:00 NR 13.2001 119.527 main 89 89 __________P___ -1 13.2001 119.527 4 11 285
1908266N10132 1908 40 WP MM NOT_NAMED 1908-09-24 09:00:00 NR 13.3442 118.987 main 141 140 __________P___ -1 13.3442 118.987 4 11 286
1908266N10132 1908 40 WP MM NOT_NAMED 1908-09-24 12:00:00 NR 13.4892 118.467 main 195 205 __________P___ -1 13.4892 118.467 4 10 287
1908266N10132 1908 40 WP MM NOT_NAMED 1908-09-24 15:00:00 NR 13.6444 117.964 main 249 261 __________P___ -1 13.6444 117.964 4 10 288
1908266N10132 1908 40 WP MM NOT_NAMED 1908-09-24 16:00:00 NR 13.7000 117.800 main 272 272 __________O___ -1 13.7000 117.800 4 10 290
1908266N10132 1908 40 WP MM NOT_NAMED 1908-09-24 18:00:00 NR 13.8161 117.490 main 301 301 __________P___ -1 13.8161 117.490 4 10 292
1908266N10132 1908 40 WP MM NOT_NAMED 1908-09-24 21:00:00 NR 14.0030 117.038 main 345 345 __________P___ -1 14.0030 117.038 4 10 294
1908266N10132 1908 40 WP MM NOT_NAMED 1908-09-25 00:00:00 NR 14.2055 116.577 main 379 379 __________P___ -1 14.2055 116.577 4 10 294
1908266N10132 1908 40 WP MM NOT_NAMED 1908-09-25 03:00:00 NR 14.4238 116.079 main 423 423 __________P___ -1 14.4238 116.079 4 11 294
1908266N10132 1908 40 WP MM NOT_NAMED 1908-09-25 04:00:00 NR 14.5000 115.900 main 441 441 __________O___ -1 14.5000 115.900 4 12 293
1908266N10132 1908 40 WP MM NOT_NAMED 1908-09-25 06:00:00 NR 14.6608 115.496 main 473 473 __________P___ -1 14.6608 115.496 4 13 292
1908266N10132 1908 40 WP MM NOT_NAMED 1908-09-25 09:00:00 NR 14.9145 114.846 main 539 539 __________P___ -1 14.9145 114.846 4 14 292
1908266N10132 1908 40 WP MM NOT_NAMED 1908-09-25 12:00:00 NR 15.1721 114.173 main 547 479 __________P___ -1 15.1721 114.173 4 14 291
1908266N10132 1908 40 WP MM NOT_NAMED 1908-09-25 15:00:00 NR 15.4210 113.512 main 479 459 __________P___ -1 15.4210 113.512 4 14 291
1908266N10132 1908 40 WP MM NOT_NAMED 1908-09-25 16:00:00 NR 15.5000 113.300 main 459 420 __________O___ -1 15.5000 113.300 4 12 291
1908266N10132 1908 40 WP MM NOT_NAMED 1908-09-25 18:00:00 NR 15.6389 112.913 main 420 374 __________P___ -1 15.6389 112.913 4 12 290
1908266N10132 1908 40 WP MM NOT_NAMED 1908-09-25 21:00:00 NR 15.8349 112.357 main 374 323 __________P___ -1 15.8349 112.357 4 11 290
1908266N10132 1908 40 WP MM NOT_NAMED 1908-09-26 00:00:00 NR 16.0274 111.819 main 323 280 __________P___ -1 16.0274 111.819 4 11 291
1908266N10132 1908 40 WP MM NOT_NAMED 1908-09-26 03:00:00 NR 16.2288 111.281 main 280 259 __________P___ -1 16.2288 111.281 4 11 292
1908266N10132 1908 40 WP MM NOT_NAMED 1908-09-26 04:00:00 NR 16.3000 111.100 main 259 217 __________O___ -1 16.3000 111.100 4 12 293
1908266N10132 1908 40 WP MM NOT_NAMED 1908-09-26 06:00:00 NR 16.4605 110.709 main 217 173 __________P___ -1 16.4605 110.709 4 12 294
1908266N10132 1908 40 WP MM NOT_NAMED 1908-09-26 09:00:00 NR 16.7140 110.117 main 173 134 __________P___ -1 16.7140 110.117 4 12 294
1908266N10132 1908 40 WP MM NOT_NAMED 1908-09-26 12:00:00 NR 16.9717 109.533 main 134 119 __________P___ -1 16.9717 109.533 4 12 295
1908266N10132 1908 40 WP MM NOT_NAMED 1908-09-26 15:00:00 NR 17.2209 108.976 main 123 119 __________P___ -1 17.2209 108.976 4 12 295
1908266N10132 1908 40 WP MM NOT_NAMED 1908-09-26 16:00:00 NR 17.3000 108.800 main 124 113 __________O___ -1 17.3000 108.800 7 11 295
1908266N10132 1908 40 WP MM NOT_NAMED 1908-09-26 18:00:00 NR 17.4503 108.464 main 113 110 __________P___ -1 17.4503 108.464 7 10 295
1908266N10132 1908 40 WP MM NOT_NAMED 1908-09-26 21:00:00 NR 17.6592 107.996 main 116 94 __________P___ -1 17.6592 107.996 7 10 295
1908266N10132 1908 40 WP MM NOT_NAMED 1908-09-27 00:00:00 NR 17.8534 107.559 main 104 64 __________P___ -1 17.8534 107.559 7 9 295
1908266N10132 1908 40 WP MM NOT_NAMED 1908-09-27 03:00:00 NR 18.0390 107.139 main 64 57 __________P___ -1 18.0390 107.139 7 9 295
1908266N10132 1908 40 WP MM NOT_NAMED 1908-09-27 04:00:00 NR 18.1000 107.000 main 57 __________O___ -1 18.1000 107.000 7 9 295

Digital Typhoon Data and Search

About IBTrACS Database

This database is a web-friendly format of International Best Track Archive for Climate Stewardship (IBTrACS), a global best track data archive curated by NOAA dating back to 1842.

Updated: 2021-10-21